Granger, Indiana
Current Conditions -  °F | °C
As of 11:54 AM on Friday 28 Nov 2014 (Local Time) from KSBN Reporting Station
Broken Clouds Broken Clouds  
Wind Chill: 14°   Ceiling: 8000
Heat Index: 24°   Visibility: 10mi
Dew Point: 17°   Wind: 9mph
Humidity: 75%   Direction: 170°S
Pressure: 30.24"   Gusts: NA
Location:  41.75°N, 86.13°W
Report Text: KSBN 281654Z 17008KT 10SM FEW048 SCT065 BKN080 M04/M08 A3024 RMK AO2 SNE02B31E47 SLP252 P0000 T10441083
Loading
Personal Weather Stations






























Interactive Weather Map New forecast layout! Learn more

10-Day Weather Forecast

Advertisements
Track Severe Weather on mobile